sensor_id;sensor_type;location;lat;lon;timestamp;P1;durP1;ratioP1;P2;durP2;ratioP2
4311;SDS011;2169;49.086;9.284;2023-07-29T00:01:57;2.30;;;2.03;;
4311;SDS011;2169;49.086;9.284;2023-07-29T00:04:25;3.40;;;2.70;;
4311;SDS011;2169;49.086;9.284;2023-07-29T00:06:52;7.33;;;2.30;;
4311;SDS011;2169;49.086;9.284;2023-07-29T00:09:19;3.00;;;2.23;;
4311;SDS011;2169;49.086;9.284;2023-07-29T00:11:46;2.33;;;2.13;;
4311;SDS011;2169;49.086;9.284;2023-07-29T00:14:13;3.33;;;2.40;;
4311;SDS011;2169;49.086;9.284;2023-07-29T00:16:40;1.53;;;1.43;;
4311;SDS011;2169;49.086;9.284;2023-07-29T00:19:07;2.03;;;1.93;;
4311;SDS011;2169;49.086;9.284;2023-07-29T00:21:36;3.27;;;1.93;;
4311;SDS011;2169;49.086;9.284;2023-07-29T00:24:03;5.67;;;1.97;;
4311;SDS011;2169;49.086;9.284;2023-07-29T00:26:30;3.87;;;1.93;;
4311;SDS011;2169;49.086;9.284;2023-07-29T00:28:57;1.90;;;1.63;;
4311;SDS011;2169;49.086;9.284;2023-07-29T00:31:24;1.57;;;1.47;;
4311;SDS011;2169;49.086;9.284;2023-07-29T00:33:51;7.20;;;2.00;;
4311;SDS011;2169;49.086;9.284;2023-07-29T00:36:18;1.87;;;1.77;;
4311;SDS011;2169;49.086;9.284;2023-07-29T00:38:47;1.73;;;1.63;;
4311;SDS011;2169;49.086;9.284;2023-07-29T00:41:14;3.63;;;1.90;;
4311;SDS011;2169;49.086;9.284;2023-07-29T00:43:42;3.20;;;1.83;;
4311;SDS011;2169;49.086;9.284;2023-07-29T00:46:09;2.53;;;1.83;;
4311;SDS011;2169;49.086;9.284;2023-07-29T00:48:38;3.53;;;1.20;;
4311;SDS011;2169;49.086;9.284;2023-07-29T00:51:05;5.40;;;1.83;;
4311;SDS011;2169;49.086;9.284;2023-07-29T00:53:32;12.33;;;2.53;;
4311;SDS011;2169;49.086;9.284;2023-07-29T00:56:00;2.03;;;1.60;;
4311;SDS011;2169;49.086;9.284;2023-07-29T00:58:27;2.40;;;1.67;;
4311;SDS011;2169;49.086;9.284;2023-07-29T01:00:54;6.93;;;1.50;;
4311;SDS011;2169;49.086;9.284;2023-07-29T01:03:22;1.60;;;1.50;;
4311;SDS011;2169;49.086;9.284;2023-07-29T01:05:50;1.33;;;1.23;;
4311;SDS011;2169;49.086;9.284;2023-07-29T01:08:28;1.93;;;1.37;;
4311;SDS011;2169;49.086;9.284;2023-07-29T01:11:04;1.93;;;1.73;;
4311;SDS011;2169;49.086;9.284;2023-07-29T01:13:41;2.20;;;1.10;;
4311;SDS011;2169;49.086;9.284;2023-07-29T01:16:15;1.50;;;1.10;;
4311;SDS011;2169;49.086;9.284;2023-07-29T01:18:47;4.03;;;1.70;;
4311;SDS011;2169;49.086;9.284;2023-07-29T01:21:16;1.17;;;1.17;;
4311;SDS011;2169;49.086;9.284;2023-07-29T01:23:45;4.37;;;1.53;;
4311;SDS011;2169;49.086;9.284;2023-07-29T01:26:12;1.13;;;1.03;;
4311;SDS011;2169;49.086;9.284;2023-07-29T01:28:39;1.47;;;1.37;;
4311;SDS011;2169;49.086;9.284;2023-07-29T01:31:07;1.57;;;1.47;;
4311;SDS011;2169;49.086;9.284;2023-07-29T01:33:39;4.03;;;1.07;;
4311;SDS011;2169;49.086;9.284;2023-07-29T01:36:11;1.80;;;1.70;;
4311;SDS011;2169;49.086;9.284;2023-07-29T01:38:46;0.83;;;0.83;;
4311;SDS011;2169;49.086;9.284;2023-07-29T01:41:14;1.57;;;1.10;;
4311;SDS011;2169;49.086;9.284;2023-07-29T01:43:43;1.33;;;1.17;;
4311;SDS011;2169;49.086;9.284;2023-07-29T01:46:12;1.00;;;1.00;;
4311;SDS011;2169;49.086;9.284;2023-07-29T01:48:40;1.50;;;1.40;;
4311;SDS011;2169;49.086;9.284;2023-07-29T01:51:07;3.13;;;1.00;;
4311;SDS011;2169;49.086;9.284;2023-07-29T01:53:38;3.10;;;1.17;;
4311;SDS011;2169;49.086;9.284;2023-07-29T01:56:08;0.90;;;0.90;;
4311;SDS011;2169;49.086;9.284;2023-07-29T01:58:35;1.00;;;1.00;;
4311;SDS011;2169;49.086;9.284;2023-07-29T02:01:02;0.97;;;0.90;;
4311;SDS011;2169;49.086;9.284;2023-07-29T02:03:29;0.90;;;0.90;;
4311;SDS011;2169;49.086;9.284;2023-07-29T02:05:56;0.80;;;0.80;;
4311;SDS011;2169;49.086;9.284;2023-07-29T02:08:23;4.17;;;1.03;;
4311;SDS011;2169;49.086;9.284;2023-07-29T02:10:50;1.17;;;1.17;;
4311;SDS011;2169;49.086;9.284;2023-07-29T02:13:18;0.80;;;0.80;;
4311;SDS011;2169;49.086;9.284;2023-07-29T02:15:45;0.80;;;0.80;;
4311;SDS011;2169;49.086;9.284;2023-07-29T02:18:12;0.80;;;0.80;;
4311;SDS011;2169;49.086;9.284;2023-07-29T02:20:39;0.97;;;0.90;;
4311;SDS011;2169;49.086;9.284;2023-07-29T02:23:11;3.13;;;0.90;;
4311;SDS011;2169;49.086;9.284;2023-07-29T02:25:38;1.07;;;1.00;;
4311;SDS011;2169;49.086;9.284;2023-07-29T02:28:05;0.80;;;0.80;;
4311;SDS011;2169;49.086;9.284;2023-07-29T02:30:33;0.83;;;0.83;;
4311;SDS011;2169;49.086;9.284;2023-07-29T02:33:00;1.03;;;0.93;;
4311;SDS011;2169;49.086;9.284;2023-07-29T02:35:27;1.00;;;1.00;;
4311;SDS011;2169;49.086;9.284;2023-07-29T02:37:54;1.33;;;0.83;;
4311;SDS011;2169;49.086;9.284;2023-07-29T02:40:21;0.93;;;0.90;;
4311;SDS011;2169;49.086;9.284;2023-07-29T02:42:48;6.40;;;0.87;;
4311;SDS011;2169;49.086;9.284;2023-07-29T02:45:14;0.70;;;0.70;;
4311;SDS011;2169;49.086;9.284;2023-07-29T02:47:43;11.17;;;1.20;;
4311;SDS011;2169;49.086;9.284;2023-07-29T02:50:10;3.83;;;0.93;;
4311;SDS011;2169;49.086;9.284;2023-07-29T02:52:37;0.83;;;0.83;;
4311;SDS011;2169;49.086;9.284;2023-07-29T02:55:05;0.70;;;0.70;;
4311;SDS011;2169;49.086;9.284;2023-07-29T02:57:32;2.13;;;1.10;;
4311;SDS011;2169;49.086;9.284;2023-07-29T03:00:00;0.70;;;0.70;;
4311;SDS011;2169;49.086;9.284;2023-07-29T03:02:28;0.80;;;0.80;;
4311;SDS011;2169;49.086;9.284;2023-07-29T03:04:56;1.33;;;1.00;;
4311;SDS011;2169;49.086;9.284;2023-07-29T03:07:23;1.53;;;0.90;;
4311;SDS011;2169;49.086;9.284;2023-07-29T03:09:50;0.87;;;0.87;;
4311;SDS011;2169;49.086;9.284;2023-07-29T03:12:17;0.80;;;0.80;;
4311;SDS011;2169;49.086;9.284;2023-07-29T03:14:47;1.10;;;1.00;;
4311;SDS011;2169;49.086;9.284;2023-07-29T03:17:14;0.70;;;0.70;;
4311;SDS011;2169;49.086;9.284;2023-07-29T03:19:41;1.10;;;1.10;;
4311;SDS011;2169;49.086;9.284;2023-07-29T03:22:09;0.80;;;0.80;;
4311;SDS011;2169;49.086;9.284;2023-07-29T03:24:36;0.60;;;0.60;;
4311;SDS011;2169;49.086;9.284;2023-07-29T03:27:04;2.40;;;0.90;;
4311;SDS011;2169;49.086;9.284;2023-07-29T03:29:32;1.83;;;0.80;;
4311;SDS011;2169;49.086;9.284;2023-07-29T03:31:58;2.50;;;0.83;;
4311;SDS011;2169;49.086;9.284;2023-07-29T03:34:25;0.73;;;0.73;;
4311;SDS011;2169;49.086;9.284;2023-07-29T03:36:54;1.10;;;1.00;;
4311;SDS011;2169;49.086;9.284;2023-07-29T03:39:22;1.93;;;1.83;;
4311;SDS011;2169;49.086;9.284;2023-07-29T03:41:49;1.47;;;1.37;;
4311;SDS011;2169;49.086;9.284;2023-07-29T03:44:16;1.13;;;1.03;;
4311;SDS011;2169;49.086;9.284;2023-07-29T03:46:45;2.80;;;0.90;;
4311;SDS011;2169;49.086;9.284;2023-07-29T03:49:12;1.10;;;0.90;;
4311;SDS011;2169;49.086;9.284;2023-07-29T03:51:39;6.70;;;1.73;;
4311;SDS011;2169;49.086;9.284;2023-07-29T03:54:06;0.70;;;0.70;;
4311;SDS011;2169;49.086;9.284;2023-07-29T03:56:34;2.77;;;0.90;;
4311;SDS011;2169;49.086;9.284;2023-07-29T03:59:02;2.70;;;0.90;;
4311;SDS011;2169;49.086;9.284;2023-07-29T04:01:29;1.43;;;1.13;;
4311;SDS011;2169;49.086;9.284;2023-07-29T04:03:57;2.67;;;0.87;;
4311;SDS011;2169;49.086;9.284;2023-07-29T04:06:24;1.10;;;1.00;;
4311;SDS011;2169;49.086;9.284;2023-07-29T04:08:51;0.80;;;0.80;;
4311;SDS011;2169;49.086;9.284;2023-07-29T04:11:18;1.77;;;0.80;;
4311;SDS011;2169;49.086;9.284;2023-07-29T04:13:46;0.83;;;0.70;;
4311;SDS011;2169;49.086;9.284;2023-07-29T04:16:13;2.57;;;1.30;;
4311;SDS011;2169;49.086;9.284;2023-07-29T04:18:41;4.30;;;1.20;;
4311;SDS011;2169;49.086;9.284;2023-07-29T04:21:10;1.10;;;1.10;;
4311;SDS011;2169;49.086;9.284;2023-07-29T04:23:37;2.30;;;1.03;;
4311;SDS011;2169;49.086;9.284;2023-07-29T04:26:05;0.80;;;0.80;;
4311;SDS011;2169;49.086;9.284;2023-07-29T04:28:32;1.20;;;1.10;;
4311;SDS011;2169;49.086;9.284;2023-07-29T04:31:01;1.07;;;1.00;;
4311;SDS011;2169;49.086;9.284;2023-07-29T04:33:29;1.83;;;1.73;;
4311;SDS011;2169;49.086;9.284;2023-07-29T04:35:56;1.13;;;0.90;;
4311;SDS011;2169;49.086;9.284;2023-07-29T04:38:30;0.90;;;0.90;;
4311;SDS011;2169;49.086;9.284;2023-07-29T04:40:57;1.07;;;0.80;;
4311;SDS011;2169;49.086;9.284;2023-07-29T04:43:26;1.80;;;1.30;;
4311;SDS011;2169;49.086;9.284;2023-07-29T04:45:53;0.90;;;0.90;;
4311;SDS011;2169;49.086;9.284;2023-07-29T04:48:22;2.20;;;1.43;;
4311;SDS011;2169;49.086;9.284;2023-07-29T04:50:48;0.80;;;0.80;;
4311;SDS011;2169;49.086;9.284;2023-07-29T04:53:15;0.90;;;0.90;;
4311;SDS011;2169;49.086;9.284;2023-07-29T04:55:42;4.40;;;1.83;;
4311;SDS011;2169;49.086;9.284;2023-07-29T04:58:09;10.10;;;2.30;;
4311;SDS011;2169;49.086;9.284;2023-07-29T05:00:40;5.70;;;1.10;;
4311;SDS011;2169;49.086;9.284;2023-07-29T05:03:07;0.90;;;0.87;;
4311;SDS011;2169;49.086;9.284;2023-07-29T05:05:38;3.23;;;1.10;;
4311;SDS011;2169;49.086;9.284;2023-07-29T05:08:07;4.67;;;1.90;;
4311;SDS011;2169;49.086;9.284;2023-07-29T05:10:34;3.13;;;1.17;;
4311;SDS011;2169;49.086;9.284;2023-07-29T05:13:01;1.70;;;1.07;;
4311;SDS011;2169;49.086;9.284;2023-07-29T05:15:28;1.23;;;1.13;;
4311;SDS011;2169;49.086;9.284;2023-07-29T05:17:55;1.93;;;1.40;;
4311;SDS011;2169;49.086;9.284;2023-07-29T05:20:22;4.10;;;1.17;;
4311;SDS011;2169;49.086;9.284;2023-07-29T05:22:51;1.03;;;0.90;;
4311;SDS011;2169;49.086;9.284;2023-07-29T05:25:17;1.47;;;1.37;;
4311;SDS011;2169;49.086;9.284;2023-07-29T05:27:44;1.93;;;0.90;;
4311;SDS011;2169;49.086;9.284;2023-07-29T05:30:11;3.57;;;1.23;;
4311;SDS011;2169;49.086;9.284;2023-07-29T05:32:38;1.90;;;1.10;;
4311;SDS011;2169;49.086;9.284;2023-07-29T05:35:05;1.57;;;0.90;;
4311;SDS011;2169;49.086;9.284;2023-07-29T05:37:33;1.43;;;1.30;;
4311;SDS011;2169;49.086;9.284;2023-07-29T05:40:02;1.23;;;1.10;;
4311;SDS011;2169;49.086;9.284;2023-07-29T05:42:29;2.00;;;1.00;;
4311;SDS011;2169;49.086;9.284;2023-07-29T05:44:56;2.63;;;1.10;;
4311;SDS011;2169;49.086;9.284;2023-07-29T05:47:23;3.37;;;1.00;;
4311;SDS011;2169;49.086;9.284;2023-07-29T05:49:50;1.03;;;1.03;;
4311;SDS011;2169;49.086;9.284;2023-07-29T05:52:17;1.63;;;1.20;;
4311;SDS011;2169;49.086;9.284;2023-07-29T05:54:45;1.60;;;1.50;;
4311;SDS011;2169;49.086;9.284;2023-07-29T05:57:13;2.17;;;1.43;;
4311;SDS011;2169;49.086;9.284;2023-07-29T05:59:40;2.20;;;1.20;;
4311;SDS011;2169;49.086;9.284;2023-07-29T06:02:07;3.93;;;1.10;;
4311;SDS011;2169;49.086;9.284;2023-07-29T06:04:34;1.33;;;1.13;;
4311;SDS011;2169;49.086;9.284;2023-07-29T06:07:01;3.57;;;1.53;;
4311;SDS011;2169;49.086;9.284;2023-07-29T06:09:28;1.20;;;0.97;;
4311;SDS011;2169;49.086;9.284;2023-07-29T06:11:55;5.43;;;2.07;;
4311;SDS011;2169;49.086;9.284;2023-07-29T06:14:23;1.63;;;1.53;;
4311;SDS011;2169;49.086;9.284;2023-07-29T06:16:50;0.90;;;0.90;;
4311;SDS011;2169;49.086;9.284;2023-07-29T06:19:17;1.60;;;1.50;;
4311;SDS011;2169;49.086;9.284;2023-07-29T06:21:44;3.03;;;1.23;;
4311;SDS011;2169;49.086;9.284;2023-07-29T06:24:11;1.90;;;1.60;;
4311;SDS011;2169;49.086;9.284;2023-07-29T06:26:38;5.17;;;4.03;;
4311;SDS011;2169;49.086;9.284;2023-07-29T06:29:05;7.07;;;2.90;;
4311;SDS011;2169;49.086;9.284;2023-07-29T06:31:33;5.73;;;2.90;;
4311;SDS011;2169;49.086;9.284;2023-07-29T06:34:00;2.33;;;1.57;;
4311;SDS011;2169;49.086;9.284;2023-07-29T06:36:27;1.57;;;1.47;;
4311;SDS011;2169;49.086;9.284;2023-07-29T06:38:54;1.20;;;1.10;;
4311;SDS011;2169;49.086;9.284;2023-07-29T06:41:24;2.80;;;2.60;;
4311;SDS011;2169;49.086;9.284;2023-07-29T06:43:51;1.47;;;1.37;;
4311;SDS011;2169;49.086;9.284;2023-07-29T06:46:18;1.73;;;1.33;;
4311;SDS011;2169;49.086;9.284;2023-07-29T06:48:47;1.13;;;1.03;;
4311;SDS011;2169;49.086;9.284;2023-07-29T06:51:14;3.83;;;1.97;;
4311;SDS011;2169;49.086;9.284;2023-07-29T06:53:40;1.20;;;1.10;;
4311;SDS011;2169;49.086;9.284;2023-07-29T06:56:07;5.80;;;2.63;;
4311;SDS011;2169;49.086;9.284;2023-07-29T06:58:34;4.30;;;2.13;;
4311;SDS011;2169;49.086;9.284;2023-07-29T07:01:02;3.50;;;1.73;;
4311;SDS011;2169;49.086;9.284;2023-07-29T07:03:28;2.17;;;2.03;;
4311;SDS011;2169;49.086;9.284;2023-07-29T07:05:58;2.00;;;1.50;;
4311;SDS011;2169;49.086;9.284;2023-07-29T07:08:25;2.80;;;0.90;;
4311;SDS011;2169;49.086;9.284;2023-07-29T07:10:55;0.80;;;0.70;;
4311;SDS011;2169;49.086;9.284;2023-07-29T07:13:23;1.20;;;1.10;;
4311;SDS011;2169;49.086;9.284;2023-07-29T07:15:50;3.27;;;1.43;;
4311;SDS011;2169;49.086;9.284;2023-07-29T07:18:20;4.90;;;2.30;;
4311;SDS011;2169;49.086;9.284;2023-07-29T07:20:48;3.20;;;1.63;;
4311;SDS011;2169;49.086;9.284;2023-07-29T07:23:16;1.30;;;1.20;;
4311;SDS011;2169;49.086;9.284;2023-07-29T07:25:44;2.10;;;1.70;;
4311;SDS011;2169;49.086;9.284;2023-07-29T07:28:11;1.53;;;1.30;;
4311;SDS011;2169;49.086;9.284;2023-07-29T07:30:39;1.30;;;1.20;;
4311;SDS011;2169;49.086;9.284;2023-07-29T07:33:06;9.00;;;2.17;;
4311;SDS011;2169;49.086;9.284;2023-07-29T07:35:33;2.40;;;2.00;;
4311;SDS011;2169;49.086;9.284;2023-07-29T07:38:00;4.60;;;2.20;;
4311;SDS011;2169;49.086;9.284;2023-07-29T07:40:30;1.60;;;1.50;;
4311;SDS011;2169;49.086;9.284;2023-07-29T07:42:57;4.97;;;1.43;;
4311;SDS011;2169;49.086;9.284;2023-07-29T07:45:24;2.10;;;1.90;;
4311;SDS011;2169;49.086;9.284;2023-07-29T07:47:53;2.37;;;2.10;;
4311;SDS011;2169;49.086;9.284;2023-07-29T07:50:20;1.90;;;1.77;;
4311;SDS011;2169;49.086;9.284;2023-07-29T07:52:49;2.10;;;1.10;;
4311;SDS011;2169;49.086;9.284;2023-07-29T07:55:16;1.37;;;0.80;;
4311;SDS011;2169;49.086;9.284;2023-07-29T07:57:44;2.27;;;1.97;;
4311;SDS011;2169;49.086;9.284;2023-07-29T08:00:13;1.97;;;1.87;;
4311;SDS011;2169;49.086;9.284;2023-07-29T08:02:41;3.30;;;1.87;;
4311;SDS011;2169;49.086;9.284;2023-07-29T08:05:08;2.40;;;1.63;;
4311;SDS011;2169;49.086;9.284;2023-07-29T08:07:35;6.20;;;1.63;;
4311;SDS011;2169;49.086;9.284;2023-07-29T08:10:06;3.37;;;1.60;;
4311;SDS011;2169;49.086;9.284;2023-07-29T08:12:33;6.30;;;2.37;;
4311;SDS011;2169;49.086;9.284;2023-07-29T08:15:02;5.37;;;2.90;;
4311;SDS011;2169;49.086;9.284;2023-07-29T08:17:29;7.00;;;1.77;;
4311;SDS011;2169;49.086;9.284;2023-07-29T08:19:56;2.10;;;1.20;;
4311;SDS011;2169;49.086;9.284;2023-07-29T08:22:23;2.87;;;2.07;;
4311;SDS011;2169;49.086;9.284;2023-07-29T08:24:50;5.43;;;1.23;;
4311;SDS011;2169;49.086;9.284;2023-07-29T08:27:19;22.10;;;7.07;;
4311;SDS011;2169;49.086;9.284;2023-07-29T08:29:46;8.40;;;3.10;;
4311;SDS011;2169;49.086;9.284;2023-07-29T08:32:14;4.57;;;2.23;;
4311;SDS011;2169;49.086;9.284;2023-07-29T08:34:41;3.50;;;1.50;;
4311;SDS011;2169;49.086;9.284;2023-07-29T08:37:08;4.73;;;1.00;;
4311;SDS011;2169;49.086;9.284;2023-07-29T08:39:35;1.07;;;1.07;;
4311;SDS011;2169;49.086;9.284;2023-07-29T08:42:03;1.27;;;1.07;;
4311;SDS011;2169;49.086;9.284;2023-07-29T08:44:34;0.80;;;0.60;;
4311;SDS011;2169;49.086;9.284;2023-07-29T08:47:05;1.43;;;1.33;;
4311;SDS011;2169;49.086;9.284;2023-07-29T08:49:34;8.60;;;2.43;;
4311;SDS011;2169;49.086;9.284;2023-07-29T08:52:03;10.73;;;5.57;;
4311;SDS011;2169;49.086;9.284;2023-07-29T08:54:31;8.67;;;6.03;;
4311;SDS011;2169;49.086;9.284;2023-07-29T08:56:59;6.93;;;3.10;;
4311;SDS011;2169;49.086;9.284;2023-07-29T08:59:26;6.60;;;2.90;;
4311;SDS011;2169;49.086;9.284;2023-07-29T09:01:55;3.53;;;2.47;;
4311;SDS011;2169;49.086;9.284;2023-07-29T09:04:23;3.03;;;2.20;;
4311;SDS011;2169;49.086;9.284;2023-07-29T09:06:51;11.20;;;3.53;;
4311;SDS011;2169;49.086;9.284;2023-07-29T09:09:21;1.47;;;1.37;;
4311;SDS011;2169;49.086;9.284;2023-07-29T09:11:57;2.40;;;1.23;;
4311;SDS011;2169;49.086;9.284;2023-07-29T09:14:24;2.37;;;1.53;;
4311;SDS011;2169;49.086;9.284;2023-07-29T09:16:51;3.37;;;1.20;;
4311;SDS011;2169;49.086;9.284;2023-07-29T09:19:18;3.00;;;1.10;;
4311;SDS011;2169;49.086;9.284;2023-07-29T09:21:45;0.90;;;0.70;;
4311;SDS011;2169;49.086;9.284;2023-07-29T09:24:14;5.20;;;1.50;;
4311;SDS011;2169;49.086;9.284;2023-07-29T09:26:48;2.43;;;1.13;;
4311;SDS011;2169;49.086;9.284;2023-07-29T09:29:21;1.30;;;1.00;;
4311;SDS011;2169;49.086;9.284;2023-07-29T09:31:48;1.17;;;1.13;;
4311;SDS011;2169;49.086;9.284;2023-07-29T09:34:16;8.73;;;1.20;;
4311;SDS011;2169;49.086;9.284;2023-07-29T09:36:44;1.10;;;1.00;;
4311;SDS011;2169;49.086;9.284;2023-07-29T09:39:11;2.13;;;0.80;;
4311;SDS011;2169;49.086;9.284;2023-07-29T09:41:40;0.80;;;0.80;;
4311;SDS011;2169;49.086;9.284;2023-07-29T09:44:07;5.13;;;0.90;;
4311;SDS011;2169;49.086;9.284;2023-07-29T09:46:45;2.50;;;1.00;;
4311;SDS011;2169;49.086;9.284;2023-07-29T09:49:12;1.87;;;1.03;;
4311;SDS011;2169;49.086;9.284;2023-07-29T09:51:39;1.13;;;1.07;;
4311;SDS011;2169;49.086;9.284;2023-07-29T09:54:06;0.87;;;0.70;;
4311;SDS011;2169;49.086;9.284;2023-07-29T09:56:41;0.87;;;0.80;;
4311;SDS011;2169;49.086;9.284;2023-07-29T09:59:09;0.80;;;0.70;;
4311;SDS011;2169;49.086;9.284;2023-07-29T10:01:37;1.33;;;0.90;;
4311;SDS011;2169;49.086;9.284;2023-07-29T10:04:04;0.80;;;0.80;;
4311;SDS011;2169;49.086;9.284;2023-07-29T10:06:32;5.10;;;0.90;;
4311;SDS011;2169;49.086;9.284;2023-07-29T10:09:00;1.07;;;0.80;;
4311;SDS011;2169;49.086;9.284;2023-07-29T10:11:28;2.97;;;1.27;;
4311;SDS011;2169;49.086;9.284;2023-07-29T10:13:57;0.70;;;0.70;;
4311;SDS011;2169;49.086;9.284;2023-07-29T10:16:26;2.00;;;1.03;;
4311;SDS011;2169;49.086;9.284;2023-07-29T10:18:53;1.17;;;0.87;;
4311;SDS011;2169;49.086;9.284;2023-07-29T10:21:21;1.00;;;0.80;;
4311;SDS011;2169;49.086;9.284;2023-07-29T10:23:49;1.40;;;1.10;;
4311;SDS011;2169;49.086;9.284;2023-07-29T10:26:21;0.80;;;0.80;;
4311;SDS011;2169;49.086;9.284;2023-07-29T10:28:49;2.30;;;1.70;;
4311;SDS011;2169;49.086;9.284;2023-07-29T10:31:21;0.90;;;0.90;;
4311;SDS011;2169;49.086;9.284;2023-07-29T10:33:49;1.10;;;1.00;;
4311;SDS011;2169;49.086;9.284;2023-07-29T10:36:17;0.90;;;0.77;;
4311;SDS011;2169;49.086;9.284;2023-07-29T10:38:44;4.67;;;0.93;;
4311;SDS011;2169;49.086;9.284;2023-07-29T10:41:11;0.97;;;0.87;;
4311;SDS011;2169;49.086;9.284;2023-07-29T10:43:39;0.70;;;0.70;;
4311;SDS011;2169;49.086;9.284;2023-07-29T10:46:15;0.70;;;0.70;;
4311;SDS011;2169;49.086;9.284;2023-07-29T10:48:52;1.60;;;1.00;;
4311;SDS011;2169;49.086;9.284;2023-07-29T10:51:25;0.80;;;0.80;;
4311;SDS011;2169;49.086;9.284;2023-07-29T10:53:56;0.60;;;0.60;;
4311;SDS011;2169;49.086;9.284;2023-07-29T10:56:27;1.33;;;0.60;;
4311;SDS011;2169;49.086;9.284;2023-07-29T10:58:56;0.87;;;0.87;;
4311;SDS011;2169;49.086;9.284;2023-07-29T11:01:27;0.60;;;0.60;;
4311;SDS011;2169;49.086;9.284;2023-07-29T11:04:03;0.60;;;0.60;;
4311;SDS011;2169;49.086;9.284;2023-07-29T11:12:34;1.53;;;0.73;;
4311;SDS011;2169;49.086;9.284;2023-07-29T11:15:07;0.70;;;0.70;;
4311;SDS011;2169;49.086;9.284;2023-07-29T11:17:42;1.10;;;1.00;;
4311;SDS011;2169;49.086;9.284;2023-07-29T11:20:13;0.80;;;0.70;;
4311;SDS011;2169;49.086;9.284;2023-07-29T11:22:41;0.70;;;0.70;;
4311;SDS011;2169;49.086;9.284;2023-07-29T11:25:09;0.80;;;0.80;;
4311;SDS011;2169;49.086;9.284;2023-07-29T11:27:37;2.63;;;1.03;;
4311;SDS011;2169;49.086;9.284;2023-07-29T11:30:06;0.60;;;0.60;;
4311;SDS011;2169;49.086;9.284;2023-07-29T11:32:35;0.60;;;0.60;;
4311;SDS011;2169;49.086;9.284;2023-07-29T11:35:04;0.60;;;0.60;;
4311;SDS011;2169;49.086;9.284;2023-07-29T11:37:40;1.47;;;0.77;;
4311;SDS011;2169;49.086;9.284;2023-07-29T11:40:08;1.00;;;0.90;;
4311;SDS011;2169;49.086;9.284;2023-07-29T11:42:36;0.70;;;0.70;;
4311;SDS011;2169;49.086;9.284;2023-07-29T11:45:07;0.50;;;0.50;;
4311;SDS011;2169;49.086;9.284;2023-07-29T11:47:35;3.80;;;1.27;;
4311;SDS011;2169;49.086;9.284;2023-07-29T11:50:03;7.07;;;0.90;;
4311;SDS011;2169;49.086;9.284;2023-07-29T11:52:31;0.90;;;0.60;;
4311;SDS011;2169;49.086;9.284;2023-07-29T11:55:07;1.70;;;0.50;;
4311;SDS011;2169;49.086;9.284;2023-07-29T11:57:38;0.70;;;0.70;;
4311;SDS011;2169;49.086;9.284;2023-07-29T12:00:11;0.70;;;0.70;;
4311;SDS011;2169;49.086;9.284;2023-07-29T12:02:40;0.90;;;0.60;;
4311;SDS011;2169;49.086;9.284;2023-07-29T12:05:09;1.13;;;0.67;;
4311;SDS011;2169;49.086;9.284;2023-07-29T12:07:45;0.70;;;0.63;;
4311;SDS011;2169;49.086;9.284;2023-07-29T12:10:13;2.10;;;0.70;;
4311;SDS011;2169;49.086;9.284;2023-07-29T12:12:44;1.57;;;0.70;;
4311;SDS011;2169;49.086;9.284;2023-07-29T12:15:22;4.00;;;0.57;;
4311;SDS011;2169;49.086;9.284;2023-07-29T12:17:53;0.70;;;0.50;;
4311;SDS011;2169;49.086;9.284;2023-07-29T12:20:22;0.63;;;0.63;;
4311;SDS011;2169;49.086;9.284;2023-07-29T12:25:37;0.77;;;0.77;;
4311;SDS011;2169;49.086;9.284;2023-07-29T12:28:18;0.60;;;0.60;;
4311;SDS011;2169;49.086;9.284;2023-07-29T12:30:54;0.60;;;0.60;;
4311;SDS011;2169;49.086;9.284;2023-07-29T12:33:30;0.70;;;0.67;;
4311;SDS011;2169;49.086;9.284;2023-07-29T12:36:07;2.10;;;0.60;;
4311;SDS011;2169;49.086;9.284;2023-07-29T12:41:17;0.63;;;0.63;;
4311;SDS011;2169;49.086;9.284;2023-07-29T12:43:43;1.73;;;0.97;;
4311;SDS011;2169;49.086;9.284;2023-07-29T12:46:11;1.03;;;0.80;;
4311;SDS011;2169;49.086;9.284;2023-07-29T12:48:38;0.97;;;0.97;;
4311;SDS011;2169;49.086;9.284;2023-07-29T12:51:04;0.70;;;0.70;;
4311;SDS011;2169;49.086;9.284;2023-07-29T12:53:31;1.03;;;0.60;;
4311;SDS011;2169;49.086;9.284;2023-07-29T12:55:58;6.43;;;0.90;;
4311;SDS011;2169;49.086;9.284;2023-07-29T12:58:27;0.67;;;0.67;;
4311;SDS011;2169;49.086;9.284;2023-07-29T13:00:54;0.80;;;0.80;;
4311;SDS011;2169;49.086;9.284;2023-07-29T13:03:20;2.33;;;0.70;;
4311;SDS011;2169;49.086;9.284;2023-07-29T13:05:47;1.10;;;0.70;;
4311;SDS011;2169;49.086;9.284;2023-07-29T13:08:14;0.70;;;0.70;;
4311;SDS011;2169;49.086;9.284;2023-07-29T13:10:41;0.60;;;0.60;;
4311;SDS011;2169;49.086;9.284;2023-07-29T13:13:07;2.63;;;0.50;;
4311;SDS011;2169;49.086;9.284;2023-07-29T13:15:35;0.70;;;0.70;;
4311;SDS011;2169;49.086;9.284;2023-07-29T13:18:02;0.60;;;0.60;;
4311;SDS011;2169;49.086;9.284;2023-07-29T13:20:29;0.67;;;0.67;;
4311;SDS011;2169;49.086;9.284;2023-07-29T13:22:55;1.10;;;0.70;;
4311;SDS011;2169;49.086;9.284;2023-07-29T13:25:22;1.53;;;0.70;;
4311;SDS011;2169;49.086;9.284;2023-07-29T13:27:49;0.60;;;0.60;;
4311;SDS011;2169;49.086;9.284;2023-07-29T13:30:16;2.50;;;1.07;;
4311;SDS011;2169;49.086;9.284;2023-07-29T13:32:44;9.90;;;0.67;;
4311;SDS011;2169;49.086;9.284;2023-07-29T13:35:10;1.77;;;0.70;;
4311;SDS011;2169;49.086;9.284;2023-07-29T13:37:37;1.47;;;0.60;;
4311;SDS011;2169;49.086;9.284;2023-07-29T13:40:04;0.60;;;0.60;;
4311;SDS011;2169;49.086;9.284;2023-07-29T13:42:32;1.53;;;0.80;;
4311;SDS011;2169;49.086;9.284;2023-07-29T13:44:59;0.63;;;0.60;;
4311;SDS011;2169;49.086;9.284;2023-07-29T13:47:26;0.70;;;0.60;;
4311;SDS011;2169;49.086;9.284;2023-07-29T13:49:54;1.57;;;0.70;;
4311;SDS011;2169;49.086;9.284;2023-07-29T13:52:21;0.80;;;0.73;;
4311;SDS011;2169;49.086;9.284;2023-07-29T13:54:47;2.20;;;0.70;;
4311;SDS011;2169;49.086;9.284;2023-07-29T13:57:14;0.80;;;0.80;;
4311;SDS011;2169;49.086;9.284;2023-07-29T13:59:41;0.70;;;0.70;;
4311;SDS011;2169;49.086;9.284;2023-07-29T14:02:08;1.00;;;0.60;;
4311;SDS011;2169;49.086;9.284;2023-07-29T14:04:34;0.60;;;0.60;;
4311;SDS011;2169;49.086;9.284;2023-07-29T14:07:03;0.70;;;0.70;;
4311;SDS011;2169;49.086;9.284;2023-07-29T14:09:30;0.73;;;0.73;;
4311;SDS011;2169;49.086;9.284;2023-07-29T14:11:56;0.70;;;0.70;;
4311;SDS011;2169;49.086;9.284;2023-07-29T14:14:23;0.70;;;0.70;;
4311;SDS011;2169;49.086;9.284;2023-07-29T14:16:50;1.13;;;1.00;;
4311;SDS011;2169;49.086;9.284;2023-07-29T14:19:17;0.80;;;0.80;;
4311;SDS011;2169;49.086;9.284;2023-07-29T14:21:44;1.00;;;0.60;;
4311;SDS011;2169;49.086;9.284;2023-07-29T14:24:12;1.43;;;0.63;;
4311;SDS011;2169;49.086;9.284;2023-07-29T14:26:40;1.90;;;1.00;;
4311;SDS011;2169;49.086;9.284;2023-07-29T14:29:07;1.43;;;0.70;;
4311;SDS011;2169;49.086;9.284;2023-07-29T14:31:33;1.60;;;0.70;;
4311;SDS011;2169;49.086;9.284;2023-07-29T14:34:00;0.67;;;0.57;;
4311;SDS011;2169;49.086;9.284;2023-07-29T14:36:27;0.87;;;0.60;;
4311;SDS011;2169;49.086;9.284;2023-07-29T14:38:53;2.00;;;0.83;;
4311;SDS011;2169;49.086;9.284;2023-07-29T14:41:21;2.33;;;0.60;;
4311;SDS011;2169;49.086;9.284;2023-07-29T14:43:48;1.20;;;1.20;;
4311;SDS011;2169;49.086;9.284;2023-07-29T14:46:15;2.67;;;1.13;;
4311;SDS011;2169;49.086;9.284;2023-07-29T14:48:42;0.90;;;0.90;;
4311;SDS011;2169;49.086;9.284;2023-07-29T14:51:08;1.17;;;0.80;;
4311;SDS011;2169;49.086;9.284;2023-07-29T14:53:35;0.70;;;0.70;;
4311;SDS011;2169;49.086;9.284;2023-07-29T14:56:02;1.40;;;0.80;;
4311;SDS011;2169;49.086;9.284;2023-07-29T14:58:30;1.07;;;0.97;;
4311;SDS011;2169;49.086;9.284;2023-07-29T15:00:57;0.60;;;0.60;;
4311;SDS011;2169;49.086;9.284;2023-07-29T15:03:24;1.37;;;0.80;;
4311;SDS011;2169;49.086;9.284;2023-07-29T15:05:51;0.90;;;0.77;;
4311;SDS011;2169;49.086;9.284;2023-07-29T15:08:17;1.33;;;0.70;;
4311;SDS011;2169;49.086;9.284;2023-07-29T15:10:44;0.97;;;0.87;;
4311;SDS011;2169;49.086;9.284;2023-07-29T15:13:11;0.60;;;0.60;;
4311;SDS011;2169;49.086;9.284;2023-07-29T15:15:41;0.87;;;0.60;;
4311;SDS011;2169;49.086;9.284;2023-07-29T15:18:08;1.17;;;0.70;;
4311;SDS011;2169;49.086;9.284;2023-07-29T15:20:35;1.40;;;1.00;;
4311;SDS011;2169;49.086;9.284;2023-07-29T15:23:02;0.90;;;0.90;;
4311;SDS011;2169;49.086;9.284;2023-07-29T15:25:29;0.80;;;0.60;;
4311;SDS011;2169;49.086;9.284;2023-07-29T15:27:55;0.80;;;0.70;;
4311;SDS011;2169;49.086;9.284;2023-07-29T15:30:23;1.07;;;0.77;;
4311;SDS011;2169;49.086;9.284;2023-07-29T15:32:51;0.80;;;0.80;;